Nye, Wisconsin
Current Conditions -  °F | °C
As of 7:15 PM on Saturday 22 Nov 2014 (Local Time) from KOEO Reporting Station
Haze Haze  
Wind Chill: 28°   Ceiling: 500
Heat Index: 35°   Visibility: 5mi
Dew Point: 35°   Wind: 9mph
Humidity: 100%   Direction: 140°SE
Pressure: 29.65"   Gusts: NA
Location:  45.3193°N, 92.6951°W
Report Text: KOEO 230115Z AUTO 14008KT 5SM BR OVC005 02/02 A2965 RMK AO2 T00190019
Loading
Personal Weather Stations






























Interactive Weather Map New forecast layout! Learn more

10-Day Weather Forecast

Advertisements
Track Severe Weather on mobile